sensor_id;sensor_type;location;lat;lon;timestamp;P1;durP1;ratioP1;P2;durP2;ratioP2
23743;SDS011;12052;53.478;10.182;2023-07-20T00:01:45;6.32;;;2.17;;
23743;SDS011;12052;53.478;10.182;2023-07-20T00:04:11;2.17;;;1.73;;
23743;SDS011;12052;53.478;10.182;2023-07-20T00:06:38;4.70;;;2.13;;
23743;SDS011;12052;53.478;10.182;2023-07-20T00:09:05;2.97;;;1.80;;
23743;SDS011;12052;53.478;10.182;2023-07-20T00:11:31;3.45;;;2.03;;
23743;SDS011;12052;53.478;10.182;2023-07-20T00:13:56;2.10;;;1.83;;
23743;SDS011;12052;53.478;10.182;2023-07-20T00:16:22;2.85;;;1.80;;
23743;SDS011;12052;53.478;10.182;2023-07-20T00:18:48;4.75;;;2.28;;
23743;SDS011;12052;53.478;10.182;2023-07-20T00:21:13;3.67;;;2.03;;
23743;SDS011;12052;53.478;10.182;2023-07-20T00:23:39;5.32;;;2.20;;
23743;SDS011;12052;53.478;10.182;2023-07-20T00:26:04;5.03;;;2.05;;
23743;SDS011;12052;53.478;10.182;2023-07-20T00:28:30;4.82;;;1.98;;
23743;SDS011;12052;53.478;10.182;2023-07-20T00:30:56;2.80;;;2.05;;
23743;SDS011;12052;53.478;10.182;2023-07-20T00:33:21;5.57;;;1.88;;
23743;SDS011;12052;53.478;10.182;2023-07-20T00:35:47;2.55;;;2.20;;
23743;SDS011;12052;53.478;10.182;2023-07-20T00:38:12;3.30;;;2.20;;
23743;SDS011;12052;53.478;10.182;2023-07-20T00:40:39;3.40;;;1.90;;
23743;SDS011;12052;53.478;10.182;2023-07-20T00:43:05;2.75;;;2.20;;
23743;SDS011;12052;53.478;10.182;2023-07-20T00:45:32;3.97;;;2.35;;
23743;SDS011;12052;53.478;10.182;2023-07-20T00:47:58;4.38;;;1.92;;
23743;SDS011;12052;53.478;10.182;2023-07-20T00:50:26;2.40;;;1.70;;
23743;SDS011;12052;53.478;10.182;2023-07-20T00:52:53;7.25;;;2.25;;
23743;SDS011;12052;53.478;10.182;2023-07-20T00:55:19;3.28;;;1.92;;
23743;SDS011;12052;53.478;10.182;2023-07-20T00:57:45;5.15;;;2.67;;
23743;SDS011;12052;53.478;10.182;2023-07-20T01:00:11;3.58;;;2.15;;
23743;SDS011;12052;53.478;10.182;2023-07-20T01:02:38;6.65;;;1.80;;
23743;SDS011;12052;53.478;10.182;2023-07-20T01:08:28;2.03;;;1.48;;
23743;SDS011;12052;53.478;10.182;2023-07-20T01:11:10;5.22;;;1.95;;
23743;SDS011;12052;53.478;10.182;2023-07-20T01:13:42;1.67;;;1.52;;
23743;SDS011;12052;53.478;10.182;2023-07-20T01:16:09;2.28;;;1.77;;
23743;SDS011;12052;53.478;10.182;2023-07-20T01:18:34;5.28;;;2.00;;
23743;SDS011;12052;53.478;10.182;2023-07-20T01:21:03;2.83;;;2.08;;
23743;SDS011;12052;53.478;10.182;2023-07-20T01:23:41;2.95;;;2.17;;
23743;SDS011;12052;53.478;10.182;2023-07-20T01:26:24;3.22;;;2.17;;
23743;SDS011;12052;53.478;10.182;2023-07-20T01:31:57;3.20;;;2.15;;
23743;SDS011;12052;53.478;10.182;2023-07-20T01:34:23;3.67;;;2.05;;
23743;SDS011;12052;53.478;10.182;2023-07-20T01:36:50;4.55;;;2.22;;
23743;SDS011;12052;53.478;10.182;2023-07-20T01:39:19;3.00;;;2.20;;
23743;SDS011;12052;53.478;10.182;2023-07-20T01:41:46;4.28;;;2.33;;
23743;SDS011;12052;53.478;10.182;2023-07-20T01:44:12;3.38;;;2.15;;
23743;SDS011;12052;53.478;10.182;2023-07-20T01:46:38;2.97;;;2.28;;
23743;SDS011;12052;53.478;10.182;2023-07-20T01:49:03;6.47;;;2.45;;
23743;SDS011;12052;53.478;10.182;2023-07-20T01:51:29;3.03;;;2.10;;
23743;SDS011;12052;53.478;10.182;2023-07-20T01:53:54;4.63;;;2.03;;
23743;SDS011;12052;53.478;10.182;2023-07-20T01:56:20;8.48;;;1.88;;
23743;SDS011;12052;53.478;10.182;2023-07-20T01:58:46;4.93;;;2.22;;
23743;SDS011;12052;53.478;10.182;2023-07-20T02:01:11;4.90;;;1.85;;
23743;SDS011;12052;53.478;10.182;2023-07-20T02:03:37;3.45;;;2.17;;
23743;SDS011;12052;53.478;10.182;2023-07-20T02:06:02;2.88;;;2.30;;
23743;SDS011;12052;53.478;10.182;2023-07-20T02:08:28;3.20;;;1.80;;
23743;SDS011;12052;53.478;10.182;2023-07-20T02:10:54;6.60;;;2.00;;
23743;SDS011;12052;53.478;10.182;2023-07-20T02:13:19;2.75;;;1.98;;
23743;SDS011;12052;53.478;10.182;2023-07-20T02:15:45;2.97;;;1.98;;
23743;SDS011;12052;53.478;10.182;2023-07-20T02:18:12;2.05;;;1.83;;
23743;SDS011;12052;53.478;10.182;2023-07-20T02:20:37;3.35;;;2.33;;
23743;SDS011;12052;53.478;10.182;2023-07-20T02:23:05;3.40;;;2.65;;
23743;SDS011;12052;53.478;10.182;2023-07-20T02:25:31;7.00;;;2.33;;
23743;SDS011;12052;53.478;10.182;2023-07-20T02:27:56;4.50;;;2.65;;
23743;SDS011;12052;53.478;10.182;2023-07-20T02:30:23;4.95;;;2.72;;
23743;SDS011;12052;53.478;10.182;2023-07-20T02:32:48;4.63;;;2.72;;
23743;SDS011;12052;53.478;10.182;2023-07-20T02:35:14;4.03;;;2.63;;
23743;SDS011;12052;53.478;10.182;2023-07-20T02:37:40;4.32;;;3.15;;
23743;SDS011;12052;53.478;10.182;2023-07-20T02:40:06;5.40;;;3.03;;
23743;SDS011;12052;53.478;10.182;2023-07-20T02:42:32;5.82;;;3.63;;
23743;SDS011;12052;53.478;10.182;2023-07-20T02:44:58;6.35;;;4.07;;
23743;SDS011;12052;53.478;10.182;2023-07-20T02:47:24;9.85;;;4.13;;
23743;SDS011;12052;53.478;10.182;2023-07-20T02:49:50;6.70;;;3.40;;
23743;SDS011;12052;53.478;10.182;2023-07-20T02:52:15;5.72;;;3.78;;
23743;SDS011;12052;53.478;10.182;2023-07-20T02:54:41;4.97;;;3.55;;
23743;SDS011;12052;53.478;10.182;2023-07-20T02:57:06;6.60;;;4.07;;
23743;SDS011;12052;53.478;10.182;2023-07-20T02:59:32;6.57;;;3.45;;
23743;SDS011;12052;53.478;10.182;2023-07-20T03:01:58;3.45;;;2.63;;
23743;SDS011;12052;53.478;10.182;2023-07-20T03:04:25;4.78;;;2.97;;
23743;SDS011;12052;53.478;10.182;2023-07-20T03:06:52;6.57;;;2.97;;
23743;SDS011;12052;53.478;10.182;2023-07-20T03:09:17;3.47;;;2.42;;
23743;SDS011;12052;53.478;10.182;2023-07-20T03:11:43;5.57;;;3.10;;
23743;SDS011;12052;53.478;10.182;2023-07-20T03:14:08;4.30;;;2.75;;
23743;SDS011;12052;53.478;10.182;2023-07-20T03:16:35;3.95;;;2.38;;
23743;SDS011;12052;53.478;10.182;2023-07-20T03:19:01;4.38;;;2.95;;
23743;SDS011;12052;53.478;10.182;2023-07-20T03:21:27;6.57;;;3.05;;
23743;SDS011;12052;53.478;10.182;2023-07-20T03:23:53;5.05;;;3.22;;
23743;SDS011;12052;53.478;10.182;2023-07-20T03:26:19;5.05;;;2.33;;
23743;SDS011;12052;53.478;10.182;2023-07-20T03:28:45;4.95;;;2.88;;
23743;SDS011;12052;53.478;10.182;2023-07-20T03:31:11;4.60;;;3.28;;
23743;SDS011;12052;53.478;10.182;2023-07-20T03:33:36;4.35;;;3.05;;
23743;SDS011;12052;53.478;10.182;2023-07-20T03:36:02;5.75;;;3.25;;
23743;SDS011;12052;53.478;10.182;2023-07-20T03:38:28;5.65;;;3.63;;
23743;SDS011;12052;53.478;10.182;2023-07-20T03:40:57;3.45;;;2.30;;
23743;SDS011;12052;53.478;10.182;2023-07-20T03:43:25;13.43;;;3.67;;
23743;SDS011;12052;53.478;10.182;2023-07-20T03:45:52;4.53;;;3.22;;
23743;SDS011;12052;53.478;10.182;2023-07-20T03:48:20;4.55;;;3.50;;
23743;SDS011;12052;53.478;10.182;2023-07-20T03:50:48;6.55;;;3.08;;
23743;SDS011;12052;53.478;10.182;2023-07-20T03:53:14;4.20;;;3.08;;
23743;SDS011;12052;53.478;10.182;2023-07-20T03:55:44;4.05;;;2.83;;
23743;SDS011;12052;53.478;10.182;2023-07-20T03:58:11;4.50;;;3.10;;
23743;SDS011;12052;53.478;10.182;2023-07-20T04:00:37;5.75;;;3.10;;
23743;SDS011;12052;53.478;10.182;2023-07-20T04:03:03;5.47;;;3.55;;
23743;SDS011;12052;53.478;10.182;2023-07-20T04:05:29;6.75;;;3.13;;
23743;SDS011;12052;53.478;10.182;2023-07-20T04:07:55;5.57;;;3.50;;
23743;SDS011;12052;53.478;10.182;2023-07-20T04:10:20;6.85;;;3.55;;
23743;SDS011;12052;53.478;10.182;2023-07-20T04:12:46;5.10;;;3.47;;
23743;SDS011;12052;53.478;10.182;2023-07-20T04:15:12;5.55;;;3.38;;
23743;SDS011;12052;53.478;10.182;2023-07-20T04:17:38;3.72;;;2.85;;
23743;SDS011;12052;53.478;10.182;2023-07-20T04:20:05;3.85;;;2.80;;
23743;SDS011;12052;53.478;10.182;2023-07-20T04:22:32;3.65;;;2.38;;
23743;SDS011;12052;53.478;10.182;2023-07-20T04:24:57;4.10;;;2.72;;
23743;SDS011;12052;53.478;10.182;2023-07-20T04:27:26;3.33;;;2.58;;
23743;SDS011;12052;53.478;10.182;2023-07-20T04:29:51;4.45;;;2.83;;
23743;SDS011;12052;53.478;10.182;2023-07-20T04:32:19;2.90;;;2.33;;
23743;SDS011;12052;53.478;10.182;2023-07-20T04:34:44;3.50;;;2.72;;
23743;SDS011;12052;53.478;10.182;2023-07-20T04:37:10;3.53;;;2.65;;
23743;SDS011;12052;53.478;10.182;2023-07-20T04:39:35;4.05;;;2.85;;
23743;SDS011;12052;53.478;10.182;2023-07-20T04:42:01;3.92;;;2.83;;
23743;SDS011;12052;53.478;10.182;2023-07-20T04:44:27;5.97;;;2.92;;
23743;SDS011;12052;53.478;10.182;2023-07-20T04:46:52;4.13;;;2.70;;
23743;SDS011;12052;53.478;10.182;2023-07-20T04:49:18;4.38;;;2.80;;
23743;SDS011;12052;53.478;10.182;2023-07-20T04:51:44;4.40;;;2.80;;
23743;SDS011;12052;53.478;10.182;2023-07-20T04:54:10;4.38;;;3.22;;
23743;SDS011;12052;53.478;10.182;2023-07-20T04:56:36;5.57;;;3.15;;
23743;SDS011;12052;53.478;10.182;2023-07-20T04:59:02;4.88;;;3.05;;
23743;SDS011;12052;53.478;10.182;2023-07-20T05:01:27;3.50;;;2.78;;
23743;SDS011;12052;53.478;10.182;2023-07-20T05:03:53;4.13;;;3.15;;
23743;SDS011;12052;53.478;10.182;2023-07-20T05:06:19;4.22;;;2.83;;
23743;SDS011;12052;53.478;10.182;2023-07-20T05:08:45;4.38;;;3.17;;
23743;SDS011;12052;53.478;10.182;2023-07-20T05:11:11;6.10;;;3.75;;
23743;SDS011;12052;53.478;10.182;2023-07-20T05:13:37;7.30;;;3.25;;
23743;SDS011;12052;53.478;10.182;2023-07-20T05:16:03;5.70;;;3.10;;
23743;SDS011;12052;53.478;10.182;2023-07-20T05:18:28;8.90;;;3.63;;
23743;SDS011;12052;53.478;10.182;2023-07-20T05:20:56;4.53;;;2.88;;
23743;SDS011;12052;53.478;10.182;2023-07-20T05:23:22;6.28;;;3.20;;
23743;SDS011;12052;53.478;10.182;2023-07-20T05:25:53;4.65;;;2.90;;
23743;SDS011;12052;53.478;10.182;2023-07-20T05:28:20;4.30;;;2.75;;
23743;SDS011;12052;53.478;10.182;2023-07-20T05:30:45;4.10;;;2.60;;
23743;SDS011;12052;53.478;10.182;2023-07-20T05:33:11;3.90;;;2.45;;
23743;SDS011;12052;53.478;10.182;2023-07-20T05:35:37;3.42;;;2.70;;
23743;SDS011;12052;53.478;10.182;2023-07-20T05:38:02;3.67;;;2.13;;
23743;SDS011;12052;53.478;10.182;2023-07-20T05:40:31;4.78;;;2.42;;
23743;SDS011;12052;53.478;10.182;2023-07-20T05:42:57;4.97;;;2.30;;
23743;SDS011;12052;53.478;10.182;2023-07-20T05:45:23;3.08;;;2.22;;
23743;SDS011;12052;53.478;10.182;2023-07-20T05:47:49;4.18;;;2.60;;
23743;SDS011;12052;53.478;10.182;2023-07-20T05:50:15;6.03;;;2.10;;
23743;SDS011;12052;53.478;10.182;2023-07-20T05:52:40;4.90;;;2.83;;
23743;SDS011;12052;53.478;10.182;2023-07-20T05:55:06;2.97;;;2.17;;
23743;SDS011;12052;53.478;10.182;2023-07-20T05:57:33;3.70;;;2.47;;
23743;SDS011;12052;53.478;10.182;2023-07-20T05:59:59;5.00;;;2.47;;
23743;SDS011;12052;53.478;10.182;2023-07-20T06:02:24;7.38;;;2.90;;
23743;SDS011;12052;53.478;10.182;2023-07-20T06:04:50;4.95;;;3.03;;
23743;SDS011;12052;53.478;10.182;2023-07-20T06:07:15;4.95;;;2.95;;
23743;SDS011;12052;53.478;10.182;2023-07-20T06:09:41;7.68;;;2.50;;
23743;SDS011;12052;53.478;10.182;2023-07-20T06:12:07;7.97;;;3.20;;
23743;SDS011;12052;53.478;10.182;2023-07-20T06:14:33;4.07;;;2.85;;
23743;SDS011;12052;53.478;10.182;2023-07-20T06:16:59;6.20;;;3.63;;
23743;SDS011;12052;53.478;10.182;2023-07-20T06:19:24;5.30;;;3.17;;
23743;SDS011;12052;53.478;10.182;2023-07-20T06:21:50;4.57;;;2.88;;
23743;SDS011;12052;53.478;10.182;2023-07-20T06:24:16;4.38;;;3.35;;
23743;SDS011;12052;53.478;10.182;2023-07-20T06:26:42;3.63;;;2.90;;
23743;SDS011;12052;53.478;10.182;2023-07-20T06:29:09;3.50;;;2.65;;
23743;SDS011;12052;53.478;10.182;2023-07-20T06:31:35;5.63;;;3.10;;
23743;SDS011;12052;53.478;10.182;2023-07-20T06:34:01;4.00;;;2.78;;
23743;SDS011;12052;53.478;10.182;2023-07-20T06:36:27;4.20;;;2.78;;
23743;SDS011;12052;53.478;10.182;2023-07-20T06:38:53;5.10;;;2.60;;
23743;SDS011;12052;53.478;10.182;2023-07-20T06:41:19;5.03;;;2.92;;
23743;SDS011;12052;53.478;10.182;2023-07-20T06:43:45;5.32;;;2.60;;
23743;SDS011;12052;53.478;10.182;2023-07-20T06:46:11;2.70;;;2.22;;
23743;SDS011;12052;53.478;10.182;2023-07-20T06:48:36;2.60;;;2.38;;
23743;SDS011;12052;53.478;10.182;2023-07-20T06:51:02;4.57;;;2.50;;
23743;SDS011;12052;53.478;10.182;2023-07-20T06:53:28;3.38;;;2.00;;
23743;SDS011;12052;53.478;10.182;2023-07-20T06:55:54;4.50;;;2.05;;
23743;SDS011;12052;53.478;10.182;2023-07-20T06:58:22;2.47;;;1.48;;
23743;SDS011;12052;53.478;10.182;2023-07-20T07:00:48;2.42;;;1.40;;
23743;SDS011;12052;53.478;10.182;2023-07-20T07:03:14;3.70;;;1.55;;
23743;SDS011;12052;53.478;10.182;2023-07-20T07:05:39;2.25;;;1.38;;
23743;SDS011;12052;53.478;10.182;2023-07-20T07:08:05;2.00;;;1.55;;
23743;SDS011;12052;53.478;10.182;2023-07-20T07:10:31;2.03;;;1.15;;
23743;SDS011;12052;53.478;10.182;2023-07-20T07:12:57;1.60;;;1.35;;
23743;SDS011;12052;53.478;10.182;2023-07-20T07:15:23;1.77;;;1.15;;
23743;SDS011;12052;53.478;10.182;2023-07-20T07:17:49;5.80;;;1.40;;
23743;SDS011;12052;53.478;10.182;2023-07-20T07:20:15;1.48;;;1.20;;
23743;SDS011;12052;53.478;10.182;2023-07-20T07:22:41;1.50;;;1.40;;
23743;SDS011;12052;53.478;10.182;2023-07-20T07:25:09;1.20;;;0.98;;
23743;SDS011;12052;53.478;10.182;2023-07-20T07:27:34;1.92;;;1.10;;
23743;SDS011;12052;53.478;10.182;2023-07-20T07:30:00;5.32;;;1.40;;
23743;SDS011;12052;53.478;10.182;2023-07-20T07:32:26;1.10;;;0.93;;
23743;SDS011;12052;53.478;10.182;2023-07-20T07:34:52;2.83;;;0.88;;
23743;SDS011;12052;53.478;10.182;2023-07-20T07:37:19;1.92;;;1.08;;
23743;SDS011;12052;53.478;10.182;2023-07-20T07:39:45;2.25;;;1.13;;
23743;SDS011;12052;53.478;10.182;2023-07-20T07:42:11;1.20;;;1.05;;
23743;SDS011;12052;53.478;10.182;2023-07-20T07:44:37;2.08;;;1.20;;
23743;SDS011;12052;53.478;10.182;2023-07-20T07:47:03;3.72;;;1.20;;
23743;SDS011;12052;53.478;10.182;2023-07-20T07:49:29;2.63;;;1.27;;
23743;SDS011;12052;53.478;10.182;2023-07-20T07:51:56;3.08;;;1.08;;
23743;SDS011;12052;53.478;10.182;2023-07-20T07:54:22;2.60;;;0.88;;
23743;SDS011;12052;53.478;10.182;2023-07-20T07:56:48;3.90;;;1.23;;
23743;SDS011;12052;53.478;10.182;2023-07-20T07:59:13;7.43;;;1.10;;
23743;SDS011;12052;53.478;10.182;2023-07-20T08:01:39;3.33;;;1.10;;
23743;SDS011;12052;53.478;10.182;2023-07-20T08:04:05;4.15;;;0.85;;
23743;SDS011;12052;53.478;10.182;2023-07-20T08:06:32;2.05;;;1.17;;
23743;SDS011;12052;53.478;10.182;2023-07-20T08:08:57;3.42;;;0.90;;
23743;SDS011;12052;53.478;10.182;2023-07-20T08:11:23;3.40;;;0.90;;
23743;SDS011;12052;53.478;10.182;2023-07-20T08:13:49;3.25;;;1.60;;
23743;SDS011;12052;53.478;10.182;2023-07-20T08:16:15;1.55;;;0.85;;
23743;SDS011;12052;53.478;10.182;2023-07-20T08:18:40;3.40;;;1.20;;
23743;SDS011;12052;53.478;10.182;2023-07-20T08:21:06;1.85;;;1.08;;
23743;SDS011;12052;53.478;10.182;2023-07-20T08:23:32;2.83;;;1.00;;
23743;SDS011;12052;53.478;10.182;2023-07-20T08:25:57;2.38;;;1.40;;
23743;SDS011;12052;53.478;10.182;2023-07-20T08:28:23;3.35;;;1.40;;
23743;SDS011;12052;53.478;10.182;2023-07-20T08:30:49;2.47;;;1.10;;
23743;SDS011;12052;53.478;10.182;2023-07-20T08:33:18;1.48;;;1.10;;
23743;SDS011;12052;53.478;10.182;2023-07-20T08:35:44;4.03;;;1.10;;
23743;SDS011;12052;53.478;10.182;2023-07-20T08:38:10;5.43;;;1.15;;
23743;SDS011;12052;53.478;10.182;2023-07-20T08:40:46;3.63;;;1.40;;
23743;SDS011;12052;53.478;10.182;2023-07-20T08:43:12;1.67;;;1.20;;
23743;SDS011;12052;53.478;10.182;2023-07-20T08:45:39;4.95;;;1.35;;
23743;SDS011;12052;53.478;10.182;2023-07-20T08:48:06;2.50;;;1.30;;
23743;SDS011;12052;53.478;10.182;2023-07-20T08:50:34;2.83;;;1.33;;
23743;SDS011;12052;53.478;10.182;2023-07-20T08:53:00;4.38;;;1.40;;
23743;SDS011;12052;53.478;10.182;2023-07-20T08:55:27;1.90;;;1.45;;
23743;SDS011;12052;53.478;10.182;2023-07-20T08:57:57;6.47;;;1.50;;
23743;SDS011;12052;53.478;10.182;2023-07-20T09:00:24;1.88;;;1.30;;
23743;SDS011;12052;53.478;10.182;2023-07-20T09:02:51;2.05;;;1.33;;
23743;SDS011;12052;53.478;10.182;2023-07-20T09:05:19;1.95;;;1.50;;
23743;SDS011;12052;53.478;10.182;2023-07-20T09:07:45;2.78;;;1.40;;
23743;SDS011;12052;53.478;10.182;2023-07-20T09:10:11;5.80;;;1.63;;
23743;SDS011;12052;53.478;10.182;2023-07-20T09:12:41;5.35;;;1.70;;
23743;SDS011;12052;53.478;10.182;2023-07-20T09:15:08;5.65;;;1.70;;
23743;SDS011;12052;53.478;10.182;2023-07-20T09:17:38;5.85;;;1.60;;
23743;SDS011;12052;53.478;10.182;2023-07-20T09:20:04;8.20;;;1.58;;
23743;SDS011;12052;53.478;10.182;2023-07-20T09:22:35;3.60;;;1.75;;
23743;SDS011;12052;53.478;10.182;2023-07-20T09:32:11;4.35;;;1.63;;
23743;SDS011;12052;53.478;10.182;2023-07-20T09:34:37;2.92;;;1.40;;
23743;SDS011;12052;53.478;10.182;2023-07-20T09:37:02;3.80;;;1.25;;
23743;SDS011;12052;53.478;10.182;2023-07-20T09:39:32;5.00;;;1.52;;
23743;SDS011;12052;53.478;10.182;2023-07-20T09:42:11;2.38;;;1.17;;
23743;SDS011;12052;53.478;10.182;2023-07-20T09:44:38;5.88;;;1.50;;
23743;SDS011;12052;53.478;10.182;2023-07-20T09:47:09;1.98;;;1.02;;
23743;SDS011;12052;53.478;10.182;2023-07-20T09:49:39;4.90;;;1.00;;
23743;SDS011;12052;53.478;10.182;2023-07-20T09:52:06;6.03;;;1.15;;
23743;SDS011;12052;53.478;10.182;2023-07-20T09:54:40;2.50;;;1.02;;
23743;SDS011;12052;53.478;10.182;2023-07-20T09:57:09;9.45;;;1.85;;
23743;SDS011;12052;53.478;10.182;2023-07-20T09:59:44;7.32;;;1.70;;
23743;SDS011;12052;53.478;10.182;2023-07-20T10:02:23;3.17;;;1.48;;
23743;SDS011;12052;53.478;10.182;2023-07-20T10:05:43;3.88;;;1.42;;
23743;SDS011;12052;53.478;10.182;2023-07-20T10:08:12;3.95;;;1.73;;
23743;SDS011;12052;53.478;10.182;2023-07-20T10:10:40;4.10;;;1.00;;
23743;SDS011;12052;53.478;10.182;2023-07-20T10:13:09;1.58;;;1.00;;
23743;SDS011;12052;53.478;10.182;2023-07-20T10:15:46;4.40;;;1.10;;
23743;SDS011;12052;53.478;10.182;2023-07-20T10:20:51;3.33;;;1.20;;
23743;SDS011;12052;53.478;10.182;2023-07-20T10:23:19;1.45;;;1.05;;
23743;SDS011;12052;53.478;10.182;2023-07-20T10:25:44;1.63;;;1.17;;
23743;SDS011;12052;53.478;10.182;2023-07-20T10:28:11;6.60;;;1.60;;
23743;SDS011;12052;53.478;10.182;2023-07-20T10:30:38;5.43;;;1.40;;
23743;SDS011;12052;53.478;10.182;2023-07-20T10:33:05;2.00;;;1.23;;
23743;SDS011;12052;53.478;10.182;2023-07-20T10:35:50;3.58;;;1.20;;
23743;SDS011;12052;53.478;10.182;2023-07-20T10:38:17;4.00;;;1.23;;
23743;SDS011;12052;53.478;10.182;2023-07-20T10:40:42;3.08;;;1.05;;
23743;SDS011;12052;53.478;10.182;2023-07-20T10:43:18;2.25;;;1.48;;
23743;SDS011;12052;53.478;10.182;2023-07-20T10:45:51;3.08;;;1.13;;
23743;SDS011;12052;53.478;10.182;2023-07-20T10:48:18;1.15;;;0.80;;
23743;SDS011;12052;53.478;10.182;2023-07-20T10:50:44;4.00;;;1.23;;
23743;SDS011;12052;53.478;10.182;2023-07-20T10:53:12;1.00;;;0.82;;
23743;SDS011;12052;53.478;10.182;2023-07-20T10:55:40;3.45;;;1.00;;
23743;SDS011;12052;53.478;10.182;2023-07-20T10:58:13;1.85;;;1.05;;
23743;SDS011;12052;53.478;10.182;2023-07-20T11:01:00;1.73;;;0.70;;
23743;SDS011;12052;53.478;10.182;2023-07-20T11:03:30;2.85;;;0.90;;
23743;SDS011;12052;53.478;10.182;2023-07-20T11:06:29;3.70;;;0.70;;
23743;SDS011;12052;53.478;10.182;2023-07-20T11:08:49;1.17;;;0.75;;
23743;SDS011;12052;53.478;10.182;2023-07-20T11:13:54;1.08;;;0.70;;
23743;SDS011;12052;53.478;10.182;2023-07-20T11:16:31;1.60;;;0.70;;
23743;SDS011;12052;53.478;10.182;2023-07-20T11:18:59;1.17;;;1.00;;
23743;SDS011;12052;53.478;10.182;2023-07-20T11:21:25;1.05;;;0.70;;
23743;SDS011;12052;53.478;10.182;2023-07-20T11:23:53;2.55;;;0.80;;
23743;SDS011;12052;53.478;10.182;2023-07-20T11:26:20;1.55;;;0.68;;
23743;SDS011;12052;53.478;10.182;2023-07-20T11:28:49;1.92;;;0.85;;
23743;SDS011;12052;53.478;10.182;2023-07-20T11:31:17;3.00;;;0.85;;
23743;SDS011;12052;53.478;10.182;2023-07-20T11:33:45;1.25;;;0.60;;
23743;SDS011;12052;53.478;10.182;2023-07-20T11:36:11;0.70;;;0.60;;
23743;SDS011;12052;53.478;10.182;2023-07-20T11:38:39;0.82;;;0.60;;
23743;SDS011;12052;53.478;10.182;2023-07-20T11:41:08;2.25;;;0.70;;
23743;SDS011;12052;53.478;10.182;2023-07-20T11:47:08;0.43;;;0.40;;
23743;SDS011;12052;53.478;10.182;2023-07-20T11:49:35;0.47;;;0.47;;
23743;SDS011;12052;53.478;10.182;2023-07-20T11:52:11;1.05;;;0.47;;
23743;SDS011;12052;53.478;10.182;2023-07-20T11:54:40;0.95;;;0.45;;
23743;SDS011;12052;53.478;10.182;2023-07-20T11:57:06;1.77;;;0.50;;
23743;SDS011;12052;53.478;10.182;2023-07-20T11:59:32;0.40;;;0.40;;
23743;SDS011;12052;53.478;10.182;2023-07-20T12:02:00;1.77;;;0.75;;
23743;SDS011;12052;53.478;10.182;2023-07-20T12:04:28;1.60;;;0.70;;
23743;SDS011;12052;53.478;10.182;2023-07-20T12:06:54;1.17;;;0.50;;
23743;SDS011;12052;53.478;10.182;2023-07-20T12:09:22;4.43;;;0.70;;
23743;SDS011;12052;53.478;10.182;2023-07-20T12:11:49;3.95;;;0.65;;
23743;SDS011;12052;53.478;10.182;2023-07-20T12:14:15;2.13;;;0.60;;
23743;SDS011;12052;53.478;10.182;2023-07-20T12:16:41;1.38;;;0.82;;
23743;SDS011;12052;53.478;10.182;2023-07-20T12:19:08;1.52;;;0.70;;
23743;SDS011;12052;53.478;10.182;2023-07-20T12:21:35;4.30;;;0.80;;
23743;SDS011;12052;53.478;10.182;2023-07-20T12:24:02;1.88;;;0.70;;
23743;SDS011;12052;53.478;10.182;2023-07-20T12:26:29;1.40;;;0.70;;
23743;SDS011;12052;53.478;10.182;2023-07-20T12:28:55;1.70;;;0.90;;
23743;SDS011;12052;53.478;10.182;2023-07-20T12:31:21;1.65;;;0.77;;
23743;SDS011;12052;53.478;10.182;2023-07-20T12:33:48;5.18;;;0.75;;
23743;SDS011;12052;53.478;10.182;2023-07-20T12:36:14;0.70;;;0.45;;
23743;SDS011;12052;53.478;10.182;2023-07-20T12:38:40;2.60;;;0.65;;
23743;SDS011;12052;53.478;10.182;2023-07-20T12:41:07;2.35;;;0.93;;
23743;SDS011;12052;53.478;10.182;2023-07-20T12:43:34;4.13;;;0.93;;
23743;SDS011;12052;53.478;10.182;2023-07-20T12:46:00;1.25;;;0.60;;
23743;SDS011;12052;53.478;10.182;2023-07-20T12:48:26;2.97;;;0.80;;
23743;SDS011;12052;53.478;10.182;2023-07-20T12:50:52;3.85;;;0.68;;
23743;SDS011;12052;53.478;10.182;2023-07-20T12:53:17;2.75;;;0.80;;
23743;SDS011;12052;53.478;10.182;2023-07-20T12:55:43;0.45;;;0.40;;
23743;SDS011;12052;53.478;10.182;2023-07-20T12:58:09;5.32;;;0.60;;
23743;SDS011;12052;53.478;10.182;2023-07-20T13:00:36;1.33;;;0.50;;
23743;SDS011;12052;53.478;10.182;2023-07-20T13:03:02;3.10;;;0.63;;
23743;SDS011;12052;53.478;10.182;2023-07-20T13:05:32;2.42;;;0.70;;
23743;SDS011;12052;53.478;10.182;2023-07-20T13:07:58;0.80;;;0.50;;
23743;SDS011;12052;53.478;10.182;2023-07-20T13:10:25;2.00;;;0.50;;
23743;SDS011;12052;53.478;10.182;2023-07-20T13:12:50;2.97;;;0.82;;
23743;SDS011;12052;53.478;10.182;2023-07-20T13:15:17;0.98;;;0.65;;
23743;SDS011;12052;53.478;10.182;2023-07-20T13:17:43;1.38;;;0.60;;
23743;SDS011;12052;53.478;10.182;2023-07-20T13:20:09;1.33;;;0.50;;
23743;SDS011;12052;53.478;10.182;2023-07-20T13:22:36;2.97;;;0.68;;
23743;SDS011;12052;53.478;10.182;2023-07-20T13:25:02;0.43;;;0.35;;
23743;SDS011;12052;53.478;10.182;2023-07-20T13:27:28;4.30;;;0.70;;
23743;SDS011;12052;53.478;10.182;2023-07-20T13:29:55;1.95;;;0.52;;
23743;SDS011;12052;53.478;10.182;2023-07-20T13:32:21;2.00;;;0.75;;
23743;SDS011;12052;53.478;10.182;2023-07-20T13:34:47;0.85;;;0.57;;
23743;SDS011;12052;53.478;10.182;2023-07-20T13:37:13;4.45;;;0.95;;
23743;SDS011;12052;53.478;10.182;2023-07-20T13:39:39;1.75;;;0.68;;
23743;SDS011;12052;53.478;10.182;2023-07-20T13:42:05;1.83;;;0.60;;
23743;SDS011;12052;53.478;10.182;2023-07-20T13:44:31;0.77;;;0.52;;
23743;SDS011;12052;53.478;10.182;2023-07-20T13:46:57;2.65;;;0.52;;
23743;SDS011;12052;53.478;10.182;2023-07-20T13:49:23;4.10;;;0.50;;
23743;SDS011;12052;53.478;10.182;2023-07-20T13:51:49;0.98;;;0.32;;
23743;SDS011;12052;53.478;10.182;2023-07-20T13:54:15;5.40;;;0.65;;
23743;SDS011;12052;53.478;10.182;2023-07-20T13:56:40;1.85;;;0.60;;
23743;SDS011;12052;53.478;10.182;2023-07-20T13:59:06;3.33;;;0.60;;
23743;SDS011;12052;53.478;10.182;2023-07-20T14:01:31;1.73;;;0.50;;
23743;SDS011;12052;53.478;10.182;2023-07-20T14:03:59;0.88;;;0.50;;
23743;SDS011;12052;53.478;10.182;2023-07-20T14:06:25;3.22;;;0.70;;
23743;SDS011;12052;53.478;10.182;2023-07-20T14:08:51;1.30;;;0.70;;
23743;SDS011;12052;53.478;10.182;2023-07-20T14:11:18;2.45;;;0.90;;
23743;SDS011;12052;53.478;10.182;2023-07-20T14:13:44;3.88;;;0.93;;
23743;SDS011;12052;53.478;10.182;2023-07-20T14:16:09;3.55;;;0.90;;
23743;SDS011;12052;53.478;10.182;2023-07-20T14:18:35;1.85;;;0.50;;
23743;SDS011;12052;53.478;10.182;2023-07-20T14:21:01;3.53;;;0.50;;
23743;SDS011;12052;53.478;10.182;2023-07-20T14:23:28;2.67;;;0.63;;
23743;SDS011;12052;53.478;10.182;2023-07-20T14:25:54;2.35;;;0.70;;
23743;SDS011;12052;53.478;10.182;2023-07-20T14:28:20;3.80;;;1.05;;
23743;SDS011;12052;53.478;10.182;2023-07-20T14:30:46;1.73;;;0.60;;
23743;SDS011;12052;53.478;10.182;2023-07-20T14:33:12;0.90;;;0.47;;
23743;SDS011;12052;53.478;10.182;2023-07-20T14:35:37;1.23;;;0.57;;
23743;SDS011;12052;53.478;10.182;2023-07-20T14:38:03;1.88;;;0.50;;
23743;SDS011;12052;53.478;10.182;2023-07-20T14:40:28;0.45;;;0.45;;
23743;SDS011;12052;53.478;10.182;2023-07-20T14:42:55;4.53;;;0.63;;
23743;SDS011;12052;53.478;10.182;2023-07-20T14:45:21;0.60;;;0.40;;
23743;SDS011;12052;53.478;10.182;2023-07-20T14:47:47;1.45;;;0.50;;
23743;SDS011;12052;53.478;10.182;2023-07-20T14:50:18;4.00;;;0.70;;
23743;SDS011;12052;53.478;10.182;2023-07-20T14:52:44;1.52;;;0.50;;
23743;SDS011;12052;53.478;10.182;2023-07-20T14:55:10;1.85;;;0.68;;